Time;durP1;ratioP1;P1;durP2;ratioP2;P2;SDS_P1;SDS_P2;PMS_P1;PMS_P2;Temp;Humidity;BMP_temperature;BMP_pressure;BME280_temperature;BME280_humidity;BME280_pressure;Samples;Min_cycle;Max_cycle;Signal;HPM_P1;HPM_P2
2021/10/15 00:02:09;;;;;;;31.47;27.40;;;13.70;99.90;;;;;;5054102;28;20487;-51
2021/10/15 00:04:35;;;;;;;35.30;27.40;;;13.50;99.90;;;;;;5054159;28;20448;-51
2021/10/15 00:07:02;;;;;;;31.07;27.53;;;13.50;99.90;;;;;;5054160;28;20461;-51
2021/10/15 00:09:29;;;;;;;28.60;25.43;;;13.70;99.90;;;;;;5053647;28;20504;-51
2021/10/15 00:11:55;;;;;;;30.77;27.47;;;13.70;99.90;;;;;;5054174;28;20942;-51
2021/10/15 00:14:22;;;;;;;32.43;26.77;;;13.90;99.90;;;;;;5054107;28;20905;-51
2021/10/15 00:16:49;;;;;;;32.63;27.80;;;13.50;99.90;;;;;;5053909;28;20555;-51
2021/10/15 00:19:17;;;;;;;30.80;26.00;;;13.50;99.90;;;;;;5053500;28;20483;-51
2021/10/15 00:21:43;;;;;;;31.10;26.60;;;14.20;99.90;;;;;;5053889;28;20940;-52
2021/10/15 00:24:10;;;;;;;29.20;25.73;;;13.30;99.90;;;;;;5053685;28;20786;-52
2021/10/15 00:26:37;;;;;;;30.83;26.17;;;14.00;99.90;;;;;;5053730;28;20458;-51
2021/10/15 00:29:05;;;;;;;27.80;24.07;;;13.80;99.90;;;;;;5053369;28;20432;-51
2021/10/15 00:31:31;;;;;;;29.20;25.30;;;13.80;99.90;;;;;;5052969;28;20436;-51
2021/10/15 00:33:58;;;;;;;28.50;25.40;;;13.50;99.90;;;;;;5053693;28;20416;-60
2021/10/15 00:36:26;;;;;;;27.97;24.83;;;13.90;99.90;;;;;;5053957;28;21069;-52
2021/10/15 00:38:54;;;;;;;24.17;21.50;;;13.60;99.90;;;;;;5053279;28;20493;-51
2021/10/15 00:41:20;;;;;;;26.43;21.90;;;13.70;99.90;;;;;;5053833;28;20433;-51
2021/10/15 00:44:01;;;;;;;26.70;21.17;;;13.00;99.90;;;;;;5053688;28;20437;-51
2021/10/15 00:46:28;;;;;;;26.93;22.27;;;13.70;99.90;;;;;;5053573;28;21009;-51
2021/10/15 00:48:55;;;;;;;26.93;21.70;;;13.60;99.90;;;;;;5053150;28;20438;-51
2021/10/15 00:51:23;;;;;;;23.60;19.77;;;13.80;99.90;;;;;;5053627;28;20437;-51
2021/10/15 00:53:51;;;;;;;23.00;20.70;;;13.80;99.90;;;;;;5052145;28;20473;-51
2021/10/15 00:56:18;;;;;;;22.73;20.40;;;13.40;99.90;;;;;;5053620;28;20465;-52
2021/10/15 00:58:45;;;;;;;23.47;21.03;;;13.10;99.90;;;;;;5052892;28;20473;-51
2021/10/15 01:01:12;;;;;;;20.90;18.03;;;13.40;99.90;;;;;;5053318;28;20434;-52
2021/10/15 01:03:39;;;;;;;24.97;19.90;;;13.20;99.90;;;;;;5053440;28;20418;-51
2021/10/15 01:06:06;;;;;;;21.70;18.37;;;13.30;99.90;;;;;;5054376;28;20456;-51
2021/10/15 01:08:34;;;;;;;24.67;20.83;;;13.50;99.90;;;;;;5055158;28;20438;-51
2021/10/15 01:11:02;;;;;;;22.43;19.37;;;13.90;99.90;;;;;;5051943;28;20433;-52
2021/10/15 01:13:30;;;;;;;21.97;19.40;;;13.70;99.90;;;;;;5053237;28;20417;-51
2021/10/15 01:16:03;;;;;;;25.50;18.17;;;13.60;99.90;;;;;;5054036;28;20973;-52
2021/10/15 01:18:29;;;;;;;19.27;17.27;;;13.40;99.90;;;;;;5052903;28;20433;-51
2021/10/15 01:20:59;;;;;;;18.97;17.00;;;13.50;99.90;;;;;;5052828;28;20448;-51
2021/10/15 01:23:25;;;;;;;21.20;18.10;;;13.50;99.90;;;;;;5052821;28;20406;-51
2021/10/15 01:25:53;;;;;;;19.93;17.73;;;13.60;99.90;;;;;;5052712;28;20508;-51
2021/10/15 01:28:20;;;;;;;20.63;17.27;;;13.50;99.90;;;;;;5052371;28;20460;-51
2021/10/15 01:30:47;;;;;;;19.57;17.67;;;13.40;99.90;;;;;;5052467;28;20858;-51
2021/10/15 01:33:13;;;;;;;18.00;16.10;;;13.70;99.90;;;;;;5052666;28;20442;-51
2021/10/15 01:35:40;;;;;;;18.50;16.53;;;13.50;99.90;;;;;;5051187;28;20458;-52
2021/10/15 01:38:08;;;;;;;17.20;15.40;;;13.60;99.90;;;;;;5052184;28;20954;-51
2021/10/15 01:40:35;;;;;;;18.10;16.20;;;13.60;99.90;;;;;;5052303;28;20455;-51
2021/10/15 01:43:02;;;;;;;19.10;16.73;;;13.40;99.90;;;;;;5051347;28;20800;-51
2021/10/15 01:45:30;;;;;;;17.20;15.47;;;13.70;99.90;;;;;;5052247;28;20929;-52
2021/10/15 01:47:58;;;;;;;20.43;15.30;;;13.40;99.90;;;;;;5052077;28;20475;-51
2021/10/15 01:50:26;;;;;;;18.43;16.13;;;13.30;99.90;;;;;;5052229;28;20436;-52
2021/10/15 01:52:53;;;;;;;18.30;16.33;;;13.20;99.90;;;;;;5052009;28;20437;-51
2021/10/15 01:55:23;;;;;;;17.27;15.40;;;13.40;99.90;;;;;;5052094;28;20437;-51
2021/10/15 01:57:50;;;;;;;18.37;16.40;;;13.40;99.90;;;;;;5051651;28;20458;-51
2021/10/15 02:00:17;;;;;;;20.97;15.87;;;13.40;99.90;;;;;;5050594;28;20539;-51
2021/10/15 02:02:45;;;;;;;16.67;14.93;;;13.30;99.90;;;;;;5052010;28;20454;-51
2021/10/15 02:05:13;;;;;;;16.30;14.60;;;13.70;99.90;;;;;;5052094;28;20450;-51
2021/10/15 02:07:41;;;;;;;21.57;17.03;;;13.40;99.90;;;;;;5051734;28;20447;-51
2021/10/15 02:10:11;;;;;;;17.53;15.47;;;13.40;99.90;;;;;;5051992;28;20426;-51
2021/10/15 02:12:40;;;;;;;16.57;14.63;;;13.60;99.90;;;;;;5052140;28;20442;-52
2021/10/15 02:15:08;;;;;;;17.67;15.37;;;13.20;99.90;;;;;;5052062;28;20438;-51
2021/10/15 02:17:35;;;;;;;15.70;14.10;;;13.30;99.90;;;;;;5051861;28;20432;-51
2021/10/15 02:20:03;;;;;;;16.60;14.90;;;13.40;99.90;;;;;;5051726;28;20481;-51
2021/10/15 02:22:30;;;;;;;15.43;13.80;;;13.50;99.90;;;;;;5051784;28;20835;-51
2021/10/15 02:24:57;;;;;;;16.13;14.50;;;13.50;99.90;;;;;;5051757;28;20479;-51
2021/10/15 02:27:23;;;;;;;15.10;13.50;;;13.40;99.90;;;;;;5051582;28;20928;-51
2021/10/15 02:29:51;;;;;;;15.60;14.13;;;13.60;99.90;;;;;;5051329;28;20445;-52
2021/10/15 02:32:18;;;;;;;16.13;14.50;;;13.40;99.90;;;;;;5050264;28;20429;-51
2021/10/15 02:34:45;;;;;;;15.83;14.27;;;13.50;99.90;;;;;;5051742;28;20954;-51
2021/10/15 02:37:12;;;;;;;16.10;14.53;;;13.90;99.90;;;;;;5051556;28;20507;-51
2021/10/15 02:39:38;;;;;;;16.07;14.47;;;13.40;99.90;;;;;;5050972;28;20919;-51
2021/10/15 02:42:05;;;;;;;16.80;14.90;;;13.50;99.90;;;;;;5051482;28;20434;-51
2021/10/15 02:44:34;;;;;;;16.13;14.43;;;13.30;99.90;;;;;;5051906;28;20441;-51
2021/10/15 02:47:02;;;;;;;16.30;13.30;;;13.20;99.90;;;;;;5082634;22;20969;-51
2021/10/15 02:49:28;;;;;;;15.30;13.60;;;13.50;99.90;;;;;;5071200;28;20431;-51
2021/10/15 02:51:55;;;;;;;15.27;13.40;;;13.30;99.90;;;;;;5071377;28;20771;-51
2021/10/15 02:54:22;;;;;;;14.90;13.47;;;13.40;99.90;;;;;;5072280;28;20448;-50
2021/10/15 02:56:48;;;;;;;14.93;13.43;;;13.00;99.90;;;;;;5075653;28;20814;-51
2021/10/15 02:59:15;;;;;;;17.67;13.20;;;12.90;99.90;;;;;;5075153;28;20436;-50
2021/10/15 03:01:41;;;;;;;17.67;13.23;;;13.30;99.90;;;;;;5075531;28;20408;-51
2021/10/15 03:04:09;;;;;;;14.20;12.83;;;13.40;99.90;;;;;;5075531;28;20432;-51
2021/10/15 03:06:36;;;;;;;15.00;13.43;;;13.20;99.90;;;;;;5075425;28;20427;-51
2021/10/15 03:09:04;;;;;;;17.60;15.47;;;13.40;99.90;;;;;;5075101;28;20845;-52
2021/10/15 03:11:31;;;;;;;16.70;15.00;;;13.10;99.90;;;;;;5075680;28;20437;-51
2021/10/15 03:13:57;;;;;;;15.80;13.97;;;13.60;99.90;;;;;;5075796;28;20436;-51
2021/10/15 03:16:24;;;;;;;15.23;13.73;;;13.30;99.90;;;;;;5075111;28;20988;-52
2021/10/15 03:18:51;;;;;;;16.03;14.33;;;13.20;99.90;;;;;;5074619;28;20864;-51
2021/10/15 03:21:18;;;;;;;14.90;13.33;;;13.20;99.90;;;;;;5075006;28;20450;-51
2021/10/15 03:23:45;;;;;;;13.83;12.43;;;13.00;99.90;;;;;;5075029;28;20481;-52
2021/10/15 03:26:12;;;;;;;14.87;13.30;;;13.20;99.90;;;;;;5074942;28;20493;-52
2021/10/15 03:28:38;;;;;;;14.57;13.07;;;13.30;99.90;;;;;;5074848;28;20455;-51
2021/10/15 03:31:05;;;;;;;14.77;13.17;;;13.30;99.90;;;;;;5074834;28;20947;-51
2021/10/15 03:33:31;;;;;;;14.33;12.93;;;13.20;99.90;;;;;;5074740;28;20433;-51
2021/10/15 03:35:59;;;;;;;13.43;12.13;;;13.20;99.90;;;;;;5074664;28;21020;-51
2021/10/15 03:38:27;;;;;;;16.53;12.70;;;13.20;99.90;;;;;;5074276;28;20442;-51
2021/10/15 03:40:54;;;;;;;20.07;13.67;;;13.30;99.90;;;;;;5074984;28;20490;-51
2021/10/15 03:43:20;;;;;;;13.17;11.50;;;13.30;99.90;;;;;;5074900;28;20443;-51
2021/10/15 03:45:47;;;;;;;12.77;11.47;;;13.50;99.90;;;;;;5074925;28;20579;-51
2021/10/15 03:48:14;;;;;;;13.97;11.47;;;13.30;99.90;;;;;;5074232;28;20461;-51
2021/10/15 03:50:41;;;;;;;12.30;11.10;;;13.60;99.90;;;;;;5074439;28;20942;-51
2021/10/15 03:53:08;;;;;;;13.87;12.57;;;13.30;99.90;;;;;;5074644;28;20952;-51
2021/10/15 03:55:36;;;;;;;13.10;11.87;;;13.00;99.90;;;;;;5074490;28;20433;-51
2021/10/15 03:58:02;;;;;;;12.47;11.27;;;13.60;99.90;;;;;;5074066;28;20538;-50
2021/10/15 04:00:29;;;;;;;14.20;12.00;;;13.00;99.90;;;;;;5074317;28;20526;-50
2021/10/15 04:02:56;;;;;;;17.33;13.37;;;13.00;99.90;;;;;;5074171;28;20513;-51
2021/10/15 04:05:22;;;;;;;13.23;11.93;;;13.20;99.90;;;;;;5073040;28;20444;-50
2021/10/15 04:07:49;;;;;;;13.87;12.37;;;13.30;99.90;;;;;;5073771;28;20448;-51
2021/10/15 04:10:16;;;;;;;11.37;10.20;;;13.30;99.90;;;;;;5074167;28;20434;-50
2021/10/15 04:12:44;;;;;;;14.33;12.43;;;13.40;99.90;;;;;;5074240;28;20467;-50
2021/10/15 04:15:11;;;;;;;12.60;11.33;;;13.30;99.90;;;;;;5074241;28;20798;-51
2021/10/15 04:17:38;;;;;;;13.50;12.10;;;13.20;99.90;;;;;;5073841;28;20877;-51
2021/10/15 04:20:07;;;;;;;12.13;10.50;;;13.30;99.90;;;;;;5073866;28;20472;-51
2021/10/15 04:22:33;;;;;;;12.60;11.30;;;13.70;99.90;;;;;;5073929;28;20436;-51
2021/10/15 04:25:00;;;;;;;13.17;11.87;;;13.30;99.90;;;;;;5073938;28;20903;-52
2021/10/15 04:27:26;;;;;;;13.80;11.13;;;13.30;99.90;;;;;;5073635;28;20456;-51
2021/10/15 04:29:54;;;;;;;13.20;10.30;;;13.30;99.90;;;;;;5073623;28;20429;-51
2021/10/15 04:32:21;;;;;;;12.77;10.87;;;13.30;99.90;;;;;;5076782;28;20884;-50
2021/10/15 04:34:48;;;;;;;11.17;9.97;;;13.10;99.90;;;;;;5074437;28;20791;-51
2021/10/15 04:37:14;;;;;;;10.73;9.73;;;13.30;99.90;;;;;;5073643;28;20466;-51
2021/10/15 04:39:41;;;;;;;20.60;12.67;;;13.30;99.90;;;;;;5073273;28;20503;-52
2021/10/15 04:42:07;;;;;;;11.77;10.30;;;13.30;99.90;;;;;;5073654;28;20807;-52
2021/10/15 04:44:34;;;;;;;12.93;11.57;;;13.30;99.90;;;;;;5073532;28;20422;-51
2021/10/15 04:47:02;;;;;;;12.60;11.30;;;13.30;99.90;;;;;;5073134;28;20488;-51
2021/10/15 04:49:29;;;;;;;12.77;11.33;;;13.40;99.90;;;;;;5073031;28;20943;-51
2021/10/15 04:51:55;;;;;;;13.33;11.93;;;13.20;99.90;;;;;;5073412;28;20435;-52
2021/10/15 04:54:22;;;;;;;13.40;10.20;;;12.90;99.90;;;;;;5073446;28;20461;-51
2021/10/15 04:56:48;;;;;;;13.10;11.50;;;13.40;99.90;;;;;;5073266;28;20424;-52
2021/10/15 04:59:15;;;;;;;14.80;11.03;;;13.30;99.90;;;;;;5072692;28;20408;-52
2021/10/15 05:01:42;;;;;;;11.60;10.40;;;13.20;99.90;;;;;;5073083;28;20452;-51
2021/10/15 05:04:11;;;;;;;14.10;11.87;;;12.80;99.90;;;;;;5073325;28;20917;-52
2021/10/15 05:06:38;;;;;;;14.53;12.60;;;13.30;99.90;;;;;;5072823;28;20554;-51
2021/10/15 05:09:25;;;;;;;12.37;11.10;;;13.10;99.90;;;;;;5072766;28;20436;-52
2021/10/15 05:11:52;;;;;;;11.90;10.43;;;13.60;99.90;;;;;;5072736;28;20819;-51
2021/10/15 05:14:18;;;;;;;14.03;11.23;;;13.30;99.90;;;;;;5072510;28;20407;-51
2021/10/15 05:16:45;;;;;;;12.50;10.50;;;13.50;99.90;;;;;;5072568;28;20451;-51
2021/10/15 05:19:13;;;;;;;13.40;11.60;;;13.20;99.90;;;;;;5072676;28;20987;-51
2021/10/15 05:21:39;;;;;;;14.50;10.40;;;13.20;99.90;;;;;;5071302;28;20472;-51
2021/10/15 05:24:06;;;;;;;11.63;10.50;;;13.20;99.90;;;;;;5072146;28;20430;-51
2021/10/15 05:26:32;;;;;;;13.63;10.97;;;12.80;99.90;;;;;;5073011;28;20874;-51
2021/10/15 05:28:59;;;;;;;11.47;10.37;;;12.90;99.90;;;;;;5072157;28;20451;-50
2021/10/15 05:31:26;;;;;;;12.10;10.80;;;13.20;99.90;;;;;;5072300;28;20436;-50
2021/10/15 05:33:52;;;;;;;13.07;10.10;;;12.90;99.90;;;;;;5072275;28;20511;-52
2021/10/15 05:36:20;;;;;;;13.13;10.47;;;13.50;99.90;;;;;;5072313;28;20449;-52
2021/10/15 05:38:47;;;;;;;11.73;10.10;;;13.10;99.90;;;;;;5071853;28;20773;-51
2021/10/15 05:41:14;;;;;;;11.63;10.43;;;13.10;99.90;;;;;;5072167;28;20478;-50
2021/10/15 05:43:41;;;;;;;11.27;10.00;;;13.50;99.90;;;;;;5072495;28;21010;-50
2021/10/15 05:46:08;;;;;;;9.77;8.70;;;12.80;99.90;;;;;;5071920;28;20491;-51
2021/10/15 05:48:34;;;;;;;12.40;10.07;;;13.10;99.90;;;;;;5071581;28;20520;-51
2021/10/15 05:51:01;;;;;;;12.20;9.20;;;13.10;99.90;;;;;;5074371;28;20436;-51
2021/10/15 05:53:32;;;;;;;13.70;10.53;;;13.20;99.90;;;;;;5072393;28;20818;-51
2021/10/15 05:56:16;;;;;;;11.90;9.07;;;12.80;99.90;;;;;;5070574;28;20457;-51
2021/10/15 05:58:53;;;;;;;12.30;9.17;;;13.30;99.90;;;;;;5071437;28;20428;-51
2021/10/15 06:01:23;;;;;;;14.53;9.90;;;13.20;99.90;;;;;;5071735;28;20441;-51
2021/10/15 06:03:57;;;;;;;10.80;9.40;;;13.10;99.90;;;;;;5071558;28;20494;-51
2021/10/15 06:14:47;;;;;;;16.13;9.10;;;13.30;99.90;;;;;;5071767;28;20435;-52
2021/10/15 06:17:17;;;;;;;10.30;8.77;;;13.30;99.90;;;;;;5071438;28;20488;-51
2021/10/15 06:19:46;;;;;;;11.03;8.83;;;13.00;99.90;;;;;;5071352;28;20540;-51
2021/10/15 06:22:13;;;;;;;10.13;9.13;;;13.30;99.90;;;;;;5071575;28;20481;-51
2021/10/15 06:24:41;;;;;;;12.50;8.90;;;13.50;99.90;;;;;;5071605;28;20414;-51
2021/10/15 06:27:08;;;;;;;12.83;9.30;;;13.40;99.90;;;;;;5071624;28;20476;-51
2021/10/15 06:29:34;;;;;;;8.60;7.70;;;13.50;99.90;;;;;;5069959;28;20961;-51
2021/10/15 06:32:01;;;;;;;11.27;7.93;;;13.70;99.90;;;;;;5070943;28;20433;-51
2021/10/15 06:34:27;;;;;;;10.30;7.93;;;13.50;99.90;;;;;;5071399;28;20441;-52
2021/10/15 06:36:54;;;;;;;12.47;8.23;;;13.50;99.90;;;;;;5071208;28;20467;-52
2021/10/15 06:39:21;;;;;;;10.40;8.37;;;13.90;99.90;;;;;;5070988;28;20440;-53
2021/10/15 06:41:49;;;;;;;12.70;7.57;;;13.60;99.90;;;;;;5071133;28;20488;-50
2021/10/15 06:44:16;;;;;;;9.10;7.77;;;13.60;99.90;;;;;;5069781;28;20449;-51
2021/10/15 06:46:42;;;;;;;21.23;8.13;;;13.20;99.90;;;;;;5071536;28;20496;-50
2021/10/15 06:49:10;;;;;;;87.77;17.20;;;13.60;99.90;;;;;;5070486;28;20489;-51
2021/10/15 06:51:37;;;;;;;33.97;10.50;;;13.60;99.90;;;;;;5070772;28;20594;-51
2021/10/15 06:54:04;;;;;;;30.70;9.73;;;13.60;99.90;;;;;;5070775;28;20433;-51
2021/10/15 06:56:31;;;;;;;13.80;7.97;;;13.60;99.90;;;;;;5071022;28;20743;-51
2021/10/15 06:58:59;;;;;;;13.13;7.03;;;13.50;99.90;;;;;;5070518;28;20434;-51
2021/10/15 07:01:25;;;;;;;20.93;10.37;;;13.40;99.90;;;;;;5070856;28;20964;-51
2021/10/15 07:03:52;;;;;;;21.07;9.27;;;13.60;99.90;;;;;;5071180;28;20440;-51
2021/10/15 07:06:19;;;;;;;11.20;7.20;;;13.70;99.90;;;;;;5070838;28;20468;-51
2021/10/15 07:08:45;;;;;;;13.03;7.87;;;13.80;99.90;;;;;;5070930;28;20435;-50
2021/10/15 07:11:13;;;;;;;9.87;7.47;;;13.50;99.90;;;;;;5071993;28;20434;-51
2021/10/15 07:13:40;;;;;;;7.87;6.43;;;13.80;99.90;;;;;;5071626;28;20943;-51
2021/10/15 07:16:10;;;;;;;9.37;7.27;;;13.80;99.90;;;;;;5070625;28;20441;-51
2021/10/15 07:18:38;;;;;;;8.07;5.97;;;13.80;99.90;;;;;;5069319;28;20445;-51
2021/10/15 07:21:04;;;;;;;11.40;7.10;;;13.80;99.90;;;;;;5070649;28;20450;-51
2021/10/15 07:23:31;;;;;;;10.13;6.90;;;13.80;99.90;;;;;;5070829;28;20429;-51
2021/10/15 07:25:58;;;;;;;9.40;6.30;;;13.80;99.90;;;;;;5070980;28;20432;-52
2021/10/15 07:28:26;;;;;;;10.37;6.40;;;13.90;99.90;;;;;;5070225;28;20865;-52
2021/10/15 07:30:53;;;;;;;8.73;6.50;;;13.90;99.90;;;;;;5071187;28;20436;-52
2021/10/15 07:33:22;;;;;;;7.30;5.40;;;13.90;99.90;;;;;;5070784;28;20439;-52
2021/10/15 07:35:48;;;;;;;8.80;5.57;;;14.00;99.90;;;;;;5071163;28;20441;-51
2021/10/15 07:38:15;;;;;;;40.83;9.40;;;14.00;99.90;;;;;;5070202;28;20449;-51
2021/10/15 07:40:42;;;;;;;19.30;6.93;;;14.00;99.90;;;;;;5073083;28;20472;-51
2021/10/15 07:43:09;;;;;;;8.63;6.27;;;13.90;99.90;;;;;;5074354;28;20434;-50
2021/10/15 07:45:35;;;;;;;11.90;5.90;;;13.80;99.90;;;;;;5074246;28;20550;-52
2021/10/15 07:48:02;;;;;;;6.43;5.60;;;13.90;99.90;;;;;;5073470;28;20471;-52
2021/10/15 07:50:30;;;;;;;7.33;5.50;;;14.00;99.90;;;;;;5073034;28;20456;-51
2021/10/15 07:52:58;;;;;;;5.90;4.90;;;14.10;99.90;;;;;;5074608;28;20435;-51
2021/10/15 07:55:25;;;;;;;6.40;5.50;;;14.20;99.90;;;;;;5074114;28;20443;-51
2021/10/15 07:57:52;;;;;;;15.27;5.90;;;14.20;99.90;;;;;;5074368;28;20456;-52
2021/10/15 08:00:19;;;;;;;8.47;5.07;;;13.90;99.90;;;;;;5074142;28;20438;-51
2021/10/15 08:02:46;;;;;;;6.77;5.37;;;14.20;99.90;;;;;;5073925;28;20480;-51
2021/10/15 08:05:14;;;;;;;5.73;4.43;;;14.30;99.90;;;;;;5074103;28;20426;-50
2021/10/15 08:07:42;;;;;;;5.90;5.40;;;14.30;99.90;;;;;;5073485;28;20454;-51
2021/10/15 08:10:10;;;;;;;6.47;4.90;;;14.40;99.90;;;;;;5073817;28;20798;-51
2021/10/15 08:12:37;;;;;;;10.33;6.63;;;14.50;99.90;;;;;;5073523;28;20507;-50
2021/10/15 08:15:05;;;;;;;7.63;5.20;;;14.50;99.90;;;;;;5073760;28;20429;-51
2021/10/15 08:17:31;;;;;;;10.47;5.00;;;14.50;99.90;;;;;;5073841;28;20450;-50
2021/10/15 08:19:58;;;;;;;5.80;4.40;;;14.50;99.90;;;;;;5073482;28;20429;-51
2021/10/15 08:22:24;;;;;;;7.60;4.60;;;14.50;99.90;;;;;;5074273;28;20498;-51
2021/10/15 08:24:52;;;;;;;7.23;4.97;;;14.50;99.90;;;;;;5073787;28;20411;-51
2021/10/15 08:27:19;;;;;;;8.47;4.60;;;14.70;99.90;;;;;;5073893;28;20460;-51
2021/10/15 08:29:46;;;;;;;4.90;4.40;;;14.60;99.90;;;;;;5074107;28;20484;-55
2021/10/15 08:32:12;;;;;;;10.20;5.00;;;14.60;99.90;;;;;;5073532;28;20437;-51
2021/10/15 08:34:39;;;;;;;7.97;4.63;;;14.60;99.90;;;;;;5073617;28;20444;-52
2021/10/15 08:37:06;;;;;;;7.17;5.17;;;14.60;99.90;;;;;;5073452;28;20518;-51
2021/10/15 08:39:33;;;;;;;5.60;4.37;;;14.60;99.90;;;;;;5072025;28;20450;-51
2021/10/15 08:42:01;;;;;;;6.80;4.13;;;14.60;99.90;;;;;;5073422;28;20473;-51
2021/10/15 08:44:33;;;;;;;5.40;4.20;;;14.60;99.90;;;;;;5073416;28;20441;-51
2021/10/15 08:47:00;;;;;;;6.30;4.07;;;14.90;99.90;;;;;;5072972;28;20861;-51
2021/10/15 08:49:27;;;;;;;4.50;3.80;;;14.50;99.90;;;;;;5073045;28;20515;-52
2021/10/15 08:51:53;;;;;;;7.67;3.53;;;15.20;99.90;;;;;;5072718;28;20966;-51
2021/10/15 08:54:20;;;;;;;8.20;4.20;;;14.80;99.90;;;;;;5073434;28;20440;-51
2021/10/15 08:56:47;;;;;;;4.83;3.80;;;14.90;99.90;;;;;;5073084;28;20457;-51
2021/10/15 08:59:19;;;;;;;8.57;4.83;;;14.70;99.90;;;;;;5072199;28;20430;-52
2021/10/15 09:01:49;;;;;;;8.73;4.53;;;15.00;99.90;;;;;;5072643;28;20583;-51
2021/10/15 09:04:18;;;;;;;5.03;4.17;;;15.00;99.90;;;;;;5072808;28;20532;-52
2021/10/15 09:06:46;;;;;;;5.30;3.60;;;15.00;99.90;;;;;;5072386;28;20464;-51
2021/10/15 09:09:12;;;;;;;6.57;3.80;;;15.00;99.90;;;;;;5072501;28;20541;-53
2021/10/15 09:11:41;;;;;;;5.17;3.90;;;15.40;99.90;;;;;;5071365;28;20429;-50
2021/10/15 09:14:11;;;;;;;9.13;3.73;;;15.00;99.90;;;;;;5072852;28;20448;-51
2021/10/15 09:16:58;;;;;;;3.80;3.10;;;14.90;99.90;;;;;;5072513;28;20562;-51
2021/10/15 09:19:27;;;;;;;7.53;3.73;;;14.90;99.90;;;;;;5072257;28;20529;-51
2021/10/15 09:22:12;;;;;;;5.73;3.50;;;14.90;99.90;;;;;;5072198;28;20993;-52
2021/10/15 09:24:41;;;;;;;5.00;3.80;;;14.90;99.90;;;;;;5072434;28;20426;-52
2021/10/15 09:27:16;;;;;;;5.13;3.80;;;15.00;99.90;;;;;;5072346;28;20449;-50
2021/10/15 09:29:45;;;;;;;8.10;3.93;;;15.00;99.90;;;;;;5071850;28;20545;-51
2021/10/15 09:32:13;;;;;;;11.67;4.37;;;14.70;99.90;;;;;;5071926;28;20779;-51
2021/10/15 09:34:40;;;;;;;6.93;3.70;;;15.10;99.90;;;;;;5072373;28;20436;-51
2021/10/15 09:37:15;;;;;;;5.57;3.73;;;15.10;99.90;;;;;;5071920;28;20468;-52
2021/10/15 09:39:43;;;;;;;4.90;3.40;;;15.10;99.90;;;;;;5070359;28;20448;-51
2021/10/15 09:42:23;;;;;;;6.50;4.03;;;15.20;99.90;;;;;;5071948;28;20473;-51
2021/10/15 09:44:50;;;;;;;7.00;3.60;;;15.30;99.90;;;;;;5072123;28;20437;-51
2021/10/15 09:47:21;;;;;;;6.63;3.03;;;15.30;99.90;;;;;;5073529;28;20487;-52
2021/10/15 09:49:50;;;;;;;3.67;3.03;;;15.40;99.90;;;;;;5072090;28;20506;-52
2021/10/15 09:52:28;;;;;;;12.07;4.30;;;15.40;99.90;;;;;;5071615;28;20425;-51
2021/10/15 09:54:56;;;;;;;6.70;3.27;;;15.40;99.90;;;;;;5071447;28;20831;-52
2021/10/15 09:57:35;;;;;;;8.40;3.77;;;15.30;99.90;;;;;;5071583;28;20805;-51
2021/10/15 10:00:04;;;;;;;7.73;3.30;;;15.30;99.90;;;;;;5071457;28;20425;-50
2021/10/15 10:02:35;;;;;;;5.63;4.00;;;15.30;99.90;;;;;;5071156;28;20476;-51
2021/10/15 10:05:04;;;;;;;6.93;3.50;;;14.90;99.90;;;;;;5070898;28;20444;-51
2021/10/15 10:07:30;;;;;;;3.87;2.90;;;15.30;99.90;;;;;;5071471;28;20541;-50
2021/10/15 10:09:57;;;;;;;7.00;4.10;;;15.30;99.90;;;;;;5070673;28;20976;-51
2021/10/15 10:12:24;;;;;;;6.10;3.27;;;15.30;99.90;;;;;;5071134;28;20536;-51
2021/10/15 10:14:51;;;;;;;7.13;3.10;;;15.40;99.90;;;;;;5071959;28;20453;-51
2021/10/15 10:17:25;;;;;;;3.83;3.10;;;15.10;99.90;;;;;;5071321;28;20548;-52
2021/10/15 10:19:58;;;;;;;7.37;3.23;;;15.40;99.90;;;;;;5070984;28;20802;-51
2021/10/15 10:22:27;;;;;;;5.07;3.10;;;15.50;99.90;;;;;;5070858;28;20977;-51
2021/10/15 10:24:55;;;;;;;6.70;4.40;;;15.50;99.90;;;;;;5071307;28;20786;-51
2021/10/15 10:27:27;;;;;;;7.33;4.20;;;15.50;99.90;;;;;;5070819;28;20464;-51
2021/10/15 10:29:54;;;;;;;9.00;3.47;;;15.50;99.90;;;;;;5070705;28;20429;-51
2021/10/15 10:32:23;;;;;;;7.00;5.40;;;15.90;99.90;;;;;;5070935;28;20512;-50
2021/10/15 10:34:51;;;;;;;4.80;3.17;;;15.40;99.90;;;;;;5071354;28;20873;-53
2021/10/15 10:37:20;;;;;;;5.73;3.10;;;15.50;99.90;;;;;;5071425;28;20465;-52
2021/10/15 10:39:47;;;;;;;6.13;3.80;;;15.40;99.90;;;;;;5070579;28;20429;-51
2021/10/15 10:42:15;;;;;;;8.87;3.40;;;15.60;99.90;;;;;;5071045;28;20473;-52
2021/10/15 10:45:11;;;;;;;5.23;3.30;;;15.30;99.90;;;;;;5071274;28;20922;-51
2021/10/15 10:47:38;;;;;;;5.60;3.33;;;15.20;99.90;;;;;;5069293;28;21009;-50
2021/10/15 10:50:12;;;;;;;5.90;3.87;;;15.50;99.90;;;;;;5070403;28;20430;-52
2021/10/15 10:53:07;;;;;;;4.43;3.37;;;15.30;99.90;;;;;;5071176;28;20472;-51
2021/10/15 10:55:42;;;;;;;5.97;3.50;;;15.40;99.90;;;;;;5070549;28;20462;-51
2021/10/15 10:58:34;;;;;;;5.13;4.07;;;15.20;99.90;;;;;;5069521;28;20461;-51
2021/10/15 11:01:20;;;;;;;8.20;3.97;;;15.30;99.90;;;;;;5069909;28;20429;-51
2021/10/15 11:03:47;;;;;;;5.20;3.87;;;15.10;99.90;;;;;;5069682;28;20517;-51
2021/10/15 11:06:14;;;;;;;6.80;5.33;;;15.60;99.90;;;;;;5071208;28;20438;-52
2021/10/15 11:08:43;;;;;;;6.10;5.47;;;14.90;99.90;;;;;;5068768;28;20572;-52
2021/10/15 11:11:46;;;;;;;8.53;5.50;;;15.10;99.90;;;;;;5070748;28;20433;-52
2021/10/15 11:14:52;;;;;;;6.23;4.73;;;15.10;99.90;;;;;;5070557;28;20486;-51
2021/10/15 11:17:20;;;;;;;7.70;4.60;;;15.10;99.90;;;;;;5073169;28;20556;-51
2021/10/15 11:19:47;;;;;;;7.53;6.23;;;15.10;99.90;;;;;;5074266;28;20460;-52
2021/10/15 11:22:14;;;;;;;5.90;4.90;;;14.90;99.90;;;;;;5073970;28;20483;-51
2021/10/15 11:24:56;;;;;;;6.33;3.93;;;14.90;99.90;;;;;;5073817;28;20461;-51
2021/10/15 11:27:23;;;;;;;6.53;4.67;;;14.90;99.90;;;;;;5073077;28;20873;-51
2021/10/15 11:29:52;;;;;;;7.67;4.00;;;14.50;99.90;;;;;;5073221;28;20507;-51
2021/10/15 11:32:43;;;;;;;6.43;4.87;;;14.80;99.90;;;;;;5073579;28;20516;-52
2021/10/15 11:35:13;;;;;;;6.73;5.63;;;14.80;99.90;;;;;;5063609;28;20504;-51
2021/10/15 11:37:42;;;;;;;7.77;4.60;;;14.80;99.90;;;;;;5073314;28;20457;-53
2021/10/15 11:40:20;;;;;;;9.10;5.50;;;14.70;99.90;;;;;;5074586;28;20430;-52
2021/10/15 11:42:47;;;;;;;8.37;5.30;;;14.60;99.90;;;;;;5074467;28;20473;-51
2021/10/15 11:45:38;;;;;;;6.83;5.90;;;14.70;99.90;;;;;;5073993;28;20485;-57
2021/10/15 11:48:08;;;;;;;5.93;5.03;;;14.70;99.90;;;;;;5063189;28;20484;-51
2021/10/15 11:50:38;;;;;;;9.10;5.80;;;14.80;99.90;;;;;;5072878;28;20441;-51
2021/10/15 11:53:05;;;;;;;9.17;6.30;;;14.60;99.90;;;;;;5073906;28;20444;-51
2021/10/15 11:55:36;;;;;;;10.40;9.13;;;14.60;99.90;;;;;;5073677;28;20842;-52
2021/10/15 11:58:20;;;;;;;10.70;7.10;;;14.50;99.90;;;;;;5072808;28;20485;-51
2021/10/15 12:01:02;;;;;;;11.97;7.27;;;14.60;99.90;;;;;;5074352;28;20433;-50
2021/10/15 12:03:31;;;;;;;7.57;6.07;;;14.50;99.90;;;;;;5073782;28;20477;-51
2021/10/15 12:06:09;;;;;;;7.70;6.47;;;14.50;99.90;;;;;;5073827;28;20436;-51
2021/10/15 12:08:36;;;;;;;7.13;5.70;;;14.60;99.90;;;;;;5073621;28;20544;-52
2021/10/15 12:11:05;;;;;;;5.60;4.03;;;14.50;99.90;;;;;;5074000;28;20430;-50
2021/10/15 12:13:32;;;;;;;4.90;2.97;;;14.30;99.90;;;;;;5073753;28;20441;-52
2021/10/15 12:15:58;;;;;;;3.87;2.70;;;14.10;99.90;;;;;;5073259;28;20432;-52
2021/10/15 12:18:30;;;;;;;3.87;2.63;;;14.00;99.90;;;;;;5072715;28;20938;-51
2021/10/15 12:21:10;;;;;;;3.80;2.40;;;14.00;99.90;;;;;;5073742;28;20467;-52
2021/10/15 12:23:50;;;;;;;3.90;2.20;;;13.90;99.90;;;;;;5073774;28;20544;-52
2021/10/15 12:26:19;;;;;;;2.80;2.00;;;13.60;99.90;;;;;;5072614;28;20509;-51
2021/10/15 12:28:46;;;;;;;3.67;2.50;;;13.70;99.90;;;;;;5072764;28;20865;-51
2021/10/15 12:31:26;;;;;;;3.57;3.27;;;14.00;99.90;;;;;;5073107;28;20904;-51
2021/10/15 12:34:07;;;;;;;2.60;2.00;;;13.90;99.90;;;;;;5073320;28;20430;-51
2021/10/15 12:36:34;;;;;;;8.33;2.20;;;13.50;99.90;;;;;;5071759;28;21023;-51
2021/10/15 12:39:24;;;;;;;3.70;1.90;;;13.80;99.90;;;;;;5072658;28;20443;-52
2021/10/15 12:41:54;;;;;;;6.07;2.50;;;13.80;99.90;;;;;;5070927;28;20446;-51
2021/10/15 12:44:30;;;;;;;5.90;2.30;;;13.80;99.90;;;;;;5072853;28;20481;-52
2021/10/15 12:47:00;;;;;;;5.30;2.73;;;13.80;99.90;;;;;;5073059;28;20475;-52
2021/10/15 12:49:28;;;;;;;4.87;2.40;;;13.80;99.90;;;;;;5070756;28;20449;-52
2021/10/15 12:51:55;;;;;;;3.57;2.50;;;13.80;99.90;;;;;;5074223;28;20434;-52
2021/10/15 12:54:41;;;;;;;2.27;1.87;;;13.80;99.90;;;;;;5073050;28;20461;-51